createdAt,value
2019-02-03T00:00:02.929Z,0
2019-02-03T00:01:01.600Z,0
2019-02-03T00:02:00.185Z,0
2019-02-03T00:02:58.770Z,0
2019-02-03T00:03:57.446Z,0
2019-02-03T00:04:55.983Z,0
2019-02-03T00:05:54.541Z,0
2019-02-03T00:07:02.835Z,0
2019-02-03T00:07:51.675Z,0
2019-02-03T00:08:50.326Z,0
2019-02-03T00:09:48.929Z,0
2019-02-03T00:10:47.477Z,0
2019-02-03T00:11:46.006Z,0
2019-02-03T00:12:44.571Z,0
2019-02-03T00:13:43.208Z,0
2019-02-03T00:14:41.800Z,0
2019-02-03T00:15:40.345Z,0
2019-02-03T00:16:38.995Z,0
2019-02-03T00:17:37.693Z,0
2019-02-03T00:18:36.248Z,0
2019-02-03T00:19:34.803Z,0
2019-02-03T00:20:33.672Z,0
2019-02-03T00:21:32.258Z,0
2019-02-03T00:22:30.807Z,0
2019-02-03T00:23:29.549Z,0
2019-02-03T00:24:28.103Z,0
2019-02-03T00:25:26.688Z,0
2019-02-03T00:26:25.471Z,0
2019-02-03T00:27:24.033Z,0
2019-02-03T00:28:22.551Z,0
2019-02-03T00:29:21.119Z,0
2019-02-03T00:30:19.646Z,0
2019-02-03T00:31:18.204Z,0
2019-02-03T00:32:16.848Z,0
2019-02-03T00:33:15.454Z,0
2019-02-03T00:34:13.993Z,0
2019-02-03T00:35:12.515Z,0
2019-02-03T00:36:11.195Z,0
2019-02-03T00:37:15.449Z,0
2019-02-03T00:38:19.822Z,0
2019-02-03T00:39:06.869Z,0
2019-02-03T00:40:05.500Z,0
2019-02-03T00:41:04.070Z,0
2019-02-03T00:42:02.604Z,0
2019-02-03T00:43:01.214Z,0
2019-02-03T00:43:59.819Z,0
2019-02-03T00:44:58.325Z,0
2019-02-03T00:45:56.878Z,0
2019-02-03T00:46:55.404Z,0
2019-02-03T00:47:53.961Z,0
2019-02-03T00:48:52.514Z,0
2019-02-03T00:49:51.203Z,0
2019-02-03T00:50:49.897Z,0
2019-02-03T00:51:48.466Z,0
2019-02-03T00:52:47.142Z,0
2019-02-03T00:53:45.872Z,0
2019-02-03T00:54:44.441Z,0
2019-02-03T00:55:42.981Z,0
2019-02-03T00:56:41.546Z,0
2019-02-03T00:57:40.098Z,0
2019-02-03T00:58:38.647Z,0
2019-02-03T00:59:37.296Z,0
2019-02-03T01:00:35.954Z,0
2019-02-03T01:01:34.504Z,0
2019-02-03T01:02:33.142Z,0
2019-02-03T01:03:31.745Z,0
2019-02-03T01:04:30.291Z,0
2019-02-03T01:05:28.858Z,0
2019-02-03T01:06:27.576Z,0
2019-02-03T01:07:27.760Z,0
2019-02-03T01:08:24.698Z,0
2019-02-03T01:09:23.319Z,0
2019-02-03T01:10:21.867Z,0
2019-02-03T01:11:20.418Z,0
2019-02-03T01:12:19.007Z,0
2019-02-03T01:13:17.596Z,0
2019-02-03T01:14:16.130Z,0
2019-02-03T01:15:14.665Z,0
2019-02-03T01:16:13.267Z,0
2019-02-03T01:17:11.856Z,0
2019-02-03T01:18:10.427Z,0
2019-02-03T01:19:09.069Z,0
2019-02-03T01:20:07.805Z,0
2019-02-03T01:21:06.324Z,0
2019-02-03T01:22:04.875Z,0
2019-02-03T01:23:03.434Z,0
2019-02-03T01:24:02.067Z,0
2019-02-03T01:25:00.678Z,0
2019-02-03T01:25:59.291Z,0
2019-02-03T01:26:57.983Z,0
2019-02-03T01:27:56.510Z,0
2019-02-03T01:28:55.180Z,0
2019-02-03T01:29:53.735Z,0
2019-02-03T01:30:52.277Z,0
2019-02-03T01:31:50.895Z,0
2019-02-03T01:32:49.474Z,0
2019-02-03T01:33:48.046Z,0
2019-02-03T01:34:46.594Z,0
2019-02-03T01:35:45.157Z,0
2019-02-03T01:36:43.703Z,0
2019-02-03T01:37:42.267Z,0
2019-02-03T01:38:40.826Z,0
2019-02-03T01:39:39.592Z,0
2019-02-03T01:40:38.132Z,0
2019-02-03T01:41:36.735Z,0
2019-02-03T01:42:35.503Z,0
2019-02-03T01:43:34.047Z,0
2019-02-03T01:44:32.602Z,0
2019-02-03T01:45:31.194Z,0
2019-02-03T01:46:29.861Z,0
2019-02-03T01:47:28.441Z,0
2019-02-03T01:48:27.116Z,0
2019-02-03T01:49:25.746Z,0
2019-02-03T01:50:24.308Z,0
2019-02-03T01:51:22.976Z,0
2019-02-03T01:52:21.654Z,0
2019-02-03T01:53:20.186Z,0
2019-02-03T01:54:18.748Z,0
2019-02-03T01:55:17.413Z,0
2019-02-03T01:56:16.110Z,0
2019-02-03T01:57:14.726Z,0
2019-02-03T01:58:13.314Z,0
2019-02-03T01:59:11.855Z,0
2019-02-03T02:00:10.509Z,0
2019-02-03T02:01:09.153Z,0
2019-02-03T02:02:07.906Z,0
2019-02-03T02:03:06.477Z,0
2019-02-03T02:04:05.044Z,0
2019-02-03T02:05:03.628Z,0
2019-02-03T02:06:02.248Z,0
2019-02-03T02:07:00.790Z,0
2019-02-03T02:07:59.449Z,0
2019-02-03T02:08:58.015Z,0
2019-02-03T02:09:56.559Z,0
2019-02-03T02:10:55.262Z,0
2019-02-03T02:11:53.940Z,0
2019-02-03T02:12:52.477Z,0
2019-02-03T02:13:51.012Z,0
2019-02-03T02:14:49.775Z,0
2019-02-03T02:15:48.322Z,0
2019-02-03T02:16:46.880Z,0
2019-02-03T02:17:45.441Z,0
2019-02-03T02:18:43.961Z,0
2019-02-03T02:19:42.495Z,0
2019-02-03T02:20:41.199Z,0
2019-02-03T02:21:39.902Z,0
2019-02-03T02:22:38.504Z,0
2019-02-03T02:23:37.128Z,0
2019-02-03T02:24:35.911Z,0
2019-02-03T02:25:34.452Z,0
2019-02-03T02:26:33.010Z,0
2019-02-03T02:27:31.568Z,0
2019-02-03T02:28:30.120Z,0
2019-02-03T02:29:28.654Z,0
2019-02-03T02:30:27.409Z,0
2019-02-03T02:31:26.083Z,0
2019-02-03T02:32:24.641Z,0
2019-02-03T02:33:23.275Z,0
2019-02-03T02:34:22.558Z,0
2019-02-03T02:35:21.226Z,0
2019-02-03T02:36:19.947Z,0
2019-02-03T02:37:18.542Z,0
2019-02-03T02:38:17.176Z,0
2019-02-03T02:39:15.801Z,0
2019-02-03T02:40:14.273Z,0
2019-02-03T02:41:12.938Z,0
2019-02-03T02:42:11.341Z,0
2019-02-03T02:43:09.886Z,0
2019-02-03T02:44:08.443Z,0
2019-02-03T02:45:07.133Z,0
2019-02-03T02:46:05.808Z,0
2019-02-03T02:47:04.343Z,0
2019-02-03T02:48:02.953Z,0
2019-02-03T02:49:01.889Z,0
2019-02-03T02:50:00.410Z,0
2019-02-03T02:50:58.993Z,0
2019-02-03T02:51:57.668Z,0
2019-02-03T02:52:56.235Z,0
2019-02-03T02:53:54.811Z,0
2019-02-03T02:54:53.580Z,0
2019-02-03T02:55:52.214Z,0
2019-02-03T02:56:50.739Z,0
2019-02-03T02:57:49.481Z,0
2019-02-03T02:58:48.059Z,0
2019-02-03T02:59:46.605Z,0
2019-02-03T03:00:45.156Z,0
2019-02-03T03:01:43.758Z,0
2019-02-03T03:02:42.306Z,0
2019-02-03T03:03:40.945Z,0
2019-02-03T03:04:39.523Z,0
2019-02-03T03:05:38.286Z,0
2019-02-03T03:06:36.838Z,0
2019-02-03T03:07:35.591Z,0
2019-02-03T03:08:34.158Z,0
2019-02-03T03:09:32.705Z,0
2019-02-03T03:10:31.249Z,0
2019-02-03T03:11:29.812Z,0
2019-02-03T03:12:28.362Z,0
2019-02-03T03:13:26.959Z,0
2019-02-03T03:14:25.578Z,0
2019-02-03T03:15:24.134Z,0
2019-02-03T03:16:22.689Z,0
2019-02-03T03:17:21.419Z,0
2019-02-03T03:18:19.987Z,0
2019-02-03T03:19:18.517Z,0
2019-02-03T03:20:17.094Z,0
2019-02-03T03:21:15.714Z,0
2019-02-03T03:22:14.397Z,0
2019-02-03T03:23:12.945Z,0
2019-02-03T03:24:11.483Z,0
2019-02-03T03:25:10.037Z,0
2019-02-03T03:26:08.702Z,0
2019-02-03T03:27:07.084Z,0
2019-02-03T03:28:05.658Z,0
2019-02-03T03:29:04.218Z,0
2019-02-03T03:30:02.826Z,0
2019-02-03T03:31:01.445Z,0
2019-02-03T03:32:00.072Z,0
2019-02-03T03:32:58.603Z,0
2019-02-03T03:33:57.242Z,0
2019-02-03T03:34:55.820Z,0
2019-02-03T03:35:54.347Z,0
2019-02-03T03:36:52.867Z,0
2019-02-03T03:37:51.608Z,0
2019-02-03T03:38:50.304Z,0
2019-02-03T03:39:48.933Z,0
2019-02-03T03:40:47.530Z,0
2019-02-03T03:41:46.067Z,0
2019-02-03T03:42:44.638Z,0
2019-02-03T03:43:43.292Z,0
2019-02-03T03:44:41.836Z,0
2019-02-03T03:45:40.392Z,0
2019-02-03T03:46:38.947Z,0
2019-02-03T03:47:37.553Z,0
2019-02-03T03:48:36.197Z,0
2019-02-03T03:49:34.730Z,0
2019-02-03T03:50:33.328Z,0
2019-02-03T03:51:31.886Z,0
2019-02-03T03:52:30.457Z,0
2019-02-03T03:53:28.991Z,0
2019-02-03T03:54:27.539Z,0
2019-02-03T03:55:26.095Z,0
2019-02-03T03:56:24.674Z,0
2019-02-03T03:57:23.330Z,0
2019-02-03T03:58:21.859Z,0
2019-02-03T03:59:20.396Z,0
2019-02-03T04:00:18.940Z,0
2019-02-03T04:01:17.682Z,0
2019-02-03T04:02:16.226Z,0
2019-02-03T04:03:14.792Z,0
2019-02-03T04:04:16.393Z,0
2019-02-03T04:05:12.086Z,0
2019-02-03T04:06:10.648Z,0
2019-02-03T04:07:09.231Z,0
2019-02-03T04:08:07.753Z,0
2019-02-03T04:09:06.327Z,0
2019-02-03T04:10:04.888Z,0
2019-02-03T04:11:03.559Z,0
2019-02-03T04:12:02.116Z,0
2019-02-03T04:13:00.669Z,0
2019-02-03T04:13:59.291Z,0
2019-02-03T04:14:57.830Z,0
2019-02-03T04:15:56.381Z,0
2019-02-03T04:16:54.927Z,0
2019-02-03T04:17:53.862Z,0
2019-02-03T04:18:52.364Z,0
2019-02-03T04:19:50.914Z,0
2019-02-03T04:20:49.472Z,0
2019-02-03T04:21:47.997Z,0
2019-02-03T04:22:46.550Z,0
2019-02-03T04:23:45.166Z,0
2019-02-03T04:24:43.777Z,0
2019-02-03T04:25:42.339Z,0
2019-02-03T04:26:40.889Z,0
2019-02-03T04:27:39.631Z,0
2019-02-03T04:28:38.195Z,0
2019-02-03T04:29:36.750Z,0
2019-02-03T04:30:35.495Z,0
2019-02-03T04:31:34.041Z,0
2019-02-03T04:32:32.604Z,0
2019-02-03T04:33:31.151Z,0
2019-02-03T04:34:30.015Z,0
2019-02-03T04:35:28.304Z,0
2019-02-03T04:36:27.016Z,0
2019-02-03T04:37:25.854Z,0
2019-02-03T04:38:24.428Z,0
2019-02-03T04:39:23.115Z,0
2019-02-03T04:40:21.666Z,0
2019-02-03T04:41:20.210Z,0
2019-02-03T04:42:18.776Z,0
2019-02-03T04:43:17.328Z,0
2019-02-03T04:44:15.868Z,0
2019-02-03T04:45:14.400Z,0
2019-02-03T04:46:12.954Z,0
2019-02-03T04:47:11.554Z,0
2019-02-03T04:48:10.096Z,0
2019-02-03T04:49:08.640Z,0
2019-02-03T04:50:07.202Z,0
2019-02-03T04:51:05.919Z,0
2019-02-03T04:52:04.454Z,0
2019-02-03T04:53:03.117Z,0
2019-02-03T04:54:01.827Z,0
2019-02-03T04:55:00.401Z,0
2019-02-03T04:55:58.979Z,0
2019-02-03T04:56:57.532Z,0
2019-02-03T04:57:56.168Z,0
2019-02-03T04:58:54.739Z,0
2019-02-03T04:59:53.317Z,0
2019-02-03T05:00:51.845Z,0
2019-02-03T05:01:50.393Z,0
2019-02-03T05:02:48.963Z,0
2019-02-03T05:03:47.537Z,0
2019-02-03T05:04:46.101Z,0
2019-02-03T05:05:44.666Z,0
2019-02-03T05:06:43.211Z,0
2019-02-03T05:07:41.859Z,0
2019-02-03T05:08:41.077Z,0
2019-02-03T05:09:38.942Z,0
2019-02-03T05:10:37.728Z,0
2019-02-03T05:11:36.287Z,0
2019-02-03T05:12:34.823Z,0
2019-02-03T05:13:33.379Z,0
2019-02-03T05:14:31.943Z,0
2019-02-03T05:15:30.498Z,0
2019-02-03T05:16:29.214Z,0
2019-02-03T05:17:27.794Z,0
2019-02-03T05:18:26.359Z,0
2019-02-03T05:19:24.994Z,0
2019-02-03T05:20:23.534Z,0
2019-02-03T05:21:22.156Z,0
2019-02-03T05:22:20.701Z,0
2019-02-03T05:23:19.431Z,0
2019-02-03T05:24:18.000Z,0
2019-02-03T05:25:16.552Z,0
2019-02-03T05:26:15.213Z,0
2019-02-03T05:27:13.679Z,0
2019-02-03T05:28:12.236Z,0
2019-02-03T05:29:10.787Z,0
2019-02-03T05:30:09.486Z,0
2019-02-03T05:31:08.115Z,0
2019-02-03T05:32:06.658Z,0
2019-02-03T05:33:05.355Z,0
2019-02-03T05:34:03.986Z,0
2019-02-03T05:35:02.491Z,0
2019-02-03T05:36:01.099Z,0
2019-02-03T05:36:59.703Z,0
2019-02-03T05:37:58.238Z,0
2019-02-03T05:38:56.923Z,0
2019-02-03T05:39:55.596Z,0
2019-02-03T05:40:54.231Z,0
2019-02-03T05:41:52.801Z,0
2019-02-03T05:42:51.406Z,0
2019-02-03T05:43:50.104Z,0
2019-02-03T05:44:48.622Z,0
2019-02-03T05:45:47.341Z,0
2019-02-03T05:46:45.895Z,0
2019-02-03T05:47:44.457Z,0
2019-02-03T05:48:43.003Z,0
2019-02-03T05:49:41.555Z,0
2019-02-03T05:50:40.125Z,0
2019-02-03T05:51:38.669Z,0
2019-02-03T05:52:37.319Z,0
2019-02-03T05:53:35.967Z,0
2019-02-03T05:54:34.534Z,0
2019-02-03T05:55:33.159Z,0
2019-02-03T05:56:31.968Z,0
2019-02-03T05:57:30.532Z,0
2019-02-03T05:58:29.072Z,0
2019-02-03T05:59:27.623Z,0
2019-02-03T06:00:26.177Z,0
2019-02-03T06:01:24.862Z,0
2019-02-03T06:02:23.513Z,0
2019-02-03T06:03:22.145Z,0
2019-02-03T06:04:20.695Z,0
2019-02-03T06:05:19.251Z,0
2019-02-03T06:06:17.898Z,0
2019-02-03T06:07:16.424Z,0
2019-02-03T06:08:15.000Z,0
2019-02-03T06:09:13.712Z,0
2019-02-03T06:10:12.259Z,0
2019-02-03T06:11:10.801Z,0
2019-02-03T06:12:09.365Z,0
2019-02-03T06:13:07.923Z,0
2019-02-03T06:14:06.478Z,0
2019-02-03T06:15:05.212Z,0
2019-02-03T06:16:03.886Z,0
2019-02-03T06:17:02.425Z,0
2019-02-03T06:18:00.984Z,0
2019-02-03T06:18:59.673Z,0
2019-02-03T06:19:58.250Z,0
2019-02-03T06:20:56.850Z,0
2019-02-03T06:21:55.460Z,0
2019-02-03T06:22:54.018Z,0
2019-02-03T06:23:52.563Z,0
2019-02-03T06:24:51.782Z,0
2019-02-03T06:25:49.761Z,0
2019-02-03T06:26:48.318Z,0
2019-02-03T06:27:46.969Z,0
2019-02-03T06:28:45.719Z,0
2019-02-03T06:29:45.101Z,0
2019-02-03T06:30:42.712Z,0
2019-02-03T06:31:41.442Z,0
2019-02-03T06:32:40.064Z,0
2019-02-03T06:33:38.609Z,0
2019-02-03T06:34:37.169Z,0
2019-02-03T06:35:35.700Z,0
2019-02-03T06:36:34.261Z,0
2019-02-03T06:37:32.803Z,0
2019-02-03T06:38:31.347Z,0
2019-02-03T06:39:29.887Z,0
2019-02-03T06:40:28.452Z,0
2019-02-03T06:41:27.111Z,0
2019-02-03T06:42:25.794Z,0
2019-02-03T06:43:24.341Z,0
2019-02-03T06:44:22.907Z,0
2019-02-03T06:45:21.483Z,0
2019-02-03T06:46:20.127Z,0
2019-02-03T06:47:18.669Z,0
2019-02-03T06:48:17.439Z,0
2019-02-03T06:49:15.988Z,0
2019-02-03T06:50:14.536Z,0
2019-02-03T06:51:13.069Z,0
2019-02-03T06:52:11.636Z,0
2019-02-03T06:53:10.214Z,0
2019-02-03T06:54:08.788Z,0
2019-02-03T06:55:07.456Z,0
2019-02-03T06:56:06.048Z,0
2019-02-03T06:57:04.603Z,0
2019-02-03T06:58:03.167Z,0
2019-02-03T06:59:01.879Z,0
2019-02-03T07:00:00.388Z,0
2019-02-03T07:00:58.947Z,0
2019-02-03T07:01:57.617Z,0
2019-02-03T07:02:56.165Z,0
2019-02-03T07:03:54.740Z,0
2019-02-03T07:04:53.264Z,0
2019-02-03T07:05:51.813Z,0
2019-02-03T07:06:50.343Z,0
2019-02-03T07:07:48.888Z,0
2019-02-03T07:08:47.625Z,0
2019-02-03T07:09:46.191Z,0
2019-02-03T07:10:44.734Z,0
2019-02-03T07:11:43.342Z,0
2019-02-03T07:12:41.972Z,0
2019-02-03T07:13:40.528Z,0
2019-02-03T07:14:39.240Z,0
2019-02-03T07:15:37.886Z,0
2019-02-03T07:16:40.694Z,0
2019-02-03T07:17:35.148Z,0
2019-02-03T07:18:33.823Z,0
2019-02-03T07:19:32.369Z,0
2019-02-03T07:20:31.175Z,0
2019-02-03T07:21:29.947Z,0
2019-02-03T07:22:28.476Z,0
2019-02-03T07:23:26.999Z,5
2019-02-03T07:24:25.585Z,5
2019-02-03T07:25:24.152Z,5
2019-02-03T07:26:22.699Z,5
2019-02-03T07:27:21.271Z,5
2019-02-03T07:28:19.864Z,5
2019-02-03T07:29:18.418Z,5
2019-02-03T07:30:16.990Z,5
2019-02-03T07:31:15.663Z,5
2019-02-03T07:32:14.485Z,5
2019-02-03T07:33:13.048Z,5
2019-02-03T07:34:12.132Z,5
2019-02-03T07:35:10.695Z,10
2019-02-03T07:36:09.337Z,10
2019-02-03T07:37:07.894Z,10
2019-02-03T07:38:06.439Z,10
2019-02-03T07:39:05.016Z,10
2019-02-03T07:40:11.939Z,10
2019-02-03T07:41:02.190Z,10
2019-02-03T07:42:00.736Z,15
2019-02-03T07:42:59.322Z,15
2019-02-03T07:43:57.895Z,15
2019-02-03T07:44:56.594Z,15
2019-02-03T07:45:55.262Z,15
2019-02-03T07:46:53.938Z,15
2019-02-03T07:47:52.496Z,15
2019-02-03T07:48:51.053Z,15
2019-02-03T07:49:49.763Z,15
2019-02-03T07:50:48.323Z,20
2019-02-03T07:51:46.909Z,20
2019-02-03T07:52:45.858Z,20
2019-02-03T07:53:44.295Z,20
2019-02-03T07:54:42.858Z,20
2019-02-03T07:55:41.614Z,20
2019-02-03T07:56:40.275Z,25
2019-02-03T07:57:38.818Z,25
2019-02-03T07:58:37.391Z,25
2019-02-03T07:59:36.037Z,25
2019-02-03T08:00:34.599Z,25
2019-02-03T08:01:33.351Z,25
2019-02-03T08:02:32.075Z,30
2019-02-03T08:03:30.613Z,30
2019-02-03T08:04:29.291Z,30
2019-02-03T08:05:28.053Z,30
2019-02-03T08:06:26.599Z,30
2019-02-03T08:07:25.151Z,30
2019-02-03T08:08:23.748Z,35
2019-02-03T08:09:22.311Z,35
2019-02-03T08:10:24.695Z,35
2019-02-03T08:11:19.593Z,35
2019-02-03T08:12:18.200Z,35
2019-02-03T08:13:16.755Z,30
2019-02-03T08:14:15.445Z,30
2019-02-03T08:15:14.195Z,25
2019-02-03T08:16:12.825Z,25
2019-02-03T08:17:11.362Z,25
2019-02-03T08:18:09.959Z,30
2019-02-03T08:19:08.529Z,30
2019-02-03T08:20:07.127Z,35
2019-02-03T08:21:05.789Z,35
2019-02-03T08:22:04.338Z,35
2019-02-03T08:23:02.920Z,30
2019-02-03T08:24:01.657Z,30
2019-02-03T08:25:00.328Z,30
2019-02-03T08:25:59.280Z,25
2019-02-03T08:26:57.923Z,30
2019-02-03T08:27:56.490Z,30
2019-02-03T08:28:55.118Z,30
2019-02-03T08:29:53.706Z,30
2019-02-03T08:30:52.354Z,25
2019-02-03T08:31:50.951Z,30
2019-02-03T08:32:49.575Z,35
2019-02-03T08:33:48.214Z,45
2019-02-03T08:34:46.793Z,45
2019-02-03T08:35:45.446Z,45
2019-02-03T08:36:44.143Z,40
2019-02-03T08:37:42.693Z,35
2019-02-03T08:38:41.269Z,30
2019-02-03T08:39:39.945Z,30
2019-02-03T08:40:38.483Z,35
2019-02-03T08:41:37.114Z,45
2019-02-03T08:42:35.638Z,45
2019-02-03T08:43:34.192Z,45
2019-02-03T08:44:32.736Z,45
2019-02-03T08:45:31.323Z,45
2019-02-03T08:46:29.887Z,50
2019-02-03T08:47:28.477Z,50
2019-02-03T08:48:27.127Z,50
2019-02-03T08:49:25.900Z,50
2019-02-03T08:50:24.506Z,50
2019-02-03T08:51:23.020Z,55
2019-02-03T08:52:21.830Z,55
2019-02-03T08:53:20.382Z,55
2019-02-03T08:54:18.982Z,55
2019-02-03T08:55:17.692Z,55
2019-02-03T08:56:16.290Z,55
2019-02-03T08:57:14.829Z,55
2019-02-03T08:58:13.635Z,55
2019-02-03T08:59:12.254Z,60
2019-02-03T09:00:10.950Z,60
2019-02-03T09:01:11.446Z,60
2019-02-03T09:02:10.025Z,60
2019-02-03T09:03:08.849Z,60
2019-02-03T09:04:07.127Z,60
2019-02-03T09:05:05.862Z,60
2019-02-03T09:06:04.412Z,60
2019-02-03T09:07:02.966Z,60
2019-02-03T09:08:01.742Z,65
2019-02-03T09:09:00.296Z,65
2019-02-03T09:09:58.878Z,65
2019-02-03T09:10:57.479Z,65
2019-02-03T09:11:56.092Z,70
2019-02-03T09:12:54.665Z,70
2019-02-03T09:13:55.573Z,70
2019-02-03T09:14:51.807Z,75
2019-02-03T09:15:51.961Z,75
2019-02-03T09:16:48.889Z,80
2019-02-03T09:17:47.625Z,80
2019-02-03T09:18:46.196Z,80
2019-02-03T09:19:44.766Z,80
2019-02-03T09:20:43.393Z,85
2019-02-03T09:21:41.996Z,85
2019-02-03T09:22:40.565Z,85
2019-02-03T09:23:39.118Z,85
2019-02-03T09:24:37.868Z,90
2019-02-03T09:27:18.238Z,90
2019-02-03T09:28:16.800Z,90
2019-02-03T09:29:15.477Z,90
2019-02-03T09:30:14.201Z,95
2019-02-03T09:31:12.787Z,95
2019-02-03T09:32:11.464Z,95
2019-02-03T09:33:10.009Z,100
2019-02-03T09:34:08.547Z,100
2019-02-03T09:35:07.100Z,100
2019-02-03T09:36:05.893Z,100
2019-02-03T09:37:04.437Z,100
2019-02-03T09:40:25.736Z,105
2019-02-03T09:41:24.319Z,105
2019-02-03T09:42:22.874Z,105
2019-02-03T09:43:21.517Z,110
2019-02-03T09:44:20.078Z,110
2019-02-03T09:45:18.643Z,105
2019-02-03T09:46:17.398Z,105
2019-02-03T09:47:16.067Z,105
2019-02-03T09:48:14.607Z,105
2019-02-03T09:49:13.216Z,100
2019-02-03T09:50:12.067Z,95
2019-02-03T09:51:10.607Z,95
2019-02-03T09:52:09.133Z,90
2019-02-03T09:53:07.708Z,80
2019-02-03T09:54:06.265Z,75
2019-02-03T09:55:04.814Z,65
2019-02-03T09:56:03.366Z,65
2019-02-03T09:57:01.910Z,70
2019-02-03T09:58:00.458Z,70
2019-02-03T09:58:59.024Z,65
2019-02-03T09:59:58.060Z,60
2019-02-03T10:00:56.666Z,60
2019-02-03T10:01:55.245Z,60
2019-02-03T10:02:53.894Z,55
2019-02-03T10:03:52.501Z,45
2019-02-03T10:04:51.163Z,40
2019-02-03T10:05:49.996Z,40
2019-02-03T10:06:48.530Z,35
2019-02-03T10:07:47.245Z,35
2019-02-03T10:08:45.816Z,40
2019-02-03T10:09:44.403Z,40
2019-02-03T10:10:42.967Z,50
2019-02-03T10:11:41.585Z,55
2019-02-03T10:12:40.162Z,80
2019-02-03T10:13:38.740Z,90
2019-02-03T10:14:37.557Z,95
2019-02-03T10:15:36.243Z,100
2019-02-03T10:16:34.779Z,105
2019-02-03T10:17:33.440Z,105
2019-02-03T10:18:32.033Z,95
2019-02-03T10:19:30.565Z,90
2019-02-03T10:20:29.114Z,80
2019-02-03T10:21:27.709Z,75
2019-02-03T10:22:26.296Z,70
2019-02-03T10:23:24.900Z,70
2019-02-03T10:24:23.457Z,75
2019-02-03T10:25:22.149Z,80
2019-02-03T10:26:20.697Z,80
2019-02-03T10:27:19.576Z,80
2019-02-03T10:28:18.137Z,80
2019-02-03T10:29:16.700Z,85
2019-02-03T10:30:15.260Z,85
2019-02-03T10:31:13.781Z,90
2019-02-03T10:32:12.325Z,85
2019-02-03T10:33:10.866Z,85
2019-02-03T10:34:09.386Z,90
2019-02-03T10:35:07.943Z,100
2019-02-03T10:36:06.511Z,110
2019-02-03T10:37:05.147Z,115
2019-02-03T10:38:04.121Z,115
2019-02-03T10:39:02.613Z,115
2019-02-03T10:40:01.316Z,115
2019-02-03T10:40:59.921Z,115
2019-02-03T10:41:58.486Z,115
2019-02-03T10:42:57.045Z,115
2019-02-03T10:43:56.316Z,120
2019-02-03T10:44:54.229Z,120
2019-02-03T10:45:52.769Z,125
2019-02-03T10:46:51.550Z,120
2019-02-03T10:47:50.099Z,120
2019-02-03T10:48:48.682Z,120
2019-02-03T10:49:47.264Z,130
2019-02-03T10:50:46.003Z,135
2019-02-03T10:51:44.701Z,135
2019-02-03T10:52:43.305Z,130
2019-02-03T10:53:41.908Z,130
2019-02-03T10:54:40.461Z,125
2019-02-03T10:55:39.349Z,120
2019-02-03T10:56:37.905Z,115
2019-02-03T10:57:36.447Z,115
2019-02-03T10:58:35.033Z,120
2019-02-03T10:59:33.664Z,120
2019-02-03T11:00:32.207Z,115
2019-02-03T11:01:30.756Z,115
2019-02-03T11:02:29.548Z,115
2019-02-03T11:03:28.237Z,105
2019-02-03T11:04:26.791Z,100
2019-02-03T11:05:25.452Z,100
2019-02-03T11:06:24.084Z,95
2019-02-03T11:07:22.735Z,95
2019-02-03T11:08:21.296Z,90
2019-02-03T11:09:19.831Z,95
2019-02-03T11:10:18.379Z,105
2019-02-03T11:11:18.793Z,105
2019-02-03T11:12:15.544Z,105
2019-02-03T11:13:14.105Z,100
2019-02-03T11:14:12.686Z,100
2019-02-03T11:15:11.372Z,100
2019-02-03T11:16:10.000Z,95
2019-02-03T11:17:08.551Z,90
2019-02-03T11:18:07.108Z,90
2019-02-03T11:19:05.960Z,90
2019-02-03T11:20:04.530Z,90
2019-02-03T11:21:03.072Z,90
2019-02-03T11:22:01.612Z,90
2019-02-03T11:23:00.195Z,90
2019-02-03T11:23:58.738Z,90
2019-02-03T11:24:57.435Z,95
2019-02-03T11:25:56.085Z,100
2019-02-03T11:26:54.622Z,105
2019-02-03T11:27:53.315Z,115
2019-02-03T11:28:52.006Z,130
2019-02-03T11:29:50.788Z,140
2019-02-03T11:30:49.258Z,140
2019-02-03T11:31:47.822Z,150
2019-02-03T11:32:46.369Z,145
2019-02-03T11:33:44.943Z,145
2019-02-03T11:34:43.586Z,150
2019-02-03T11:35:42.298Z,150
2019-02-03T11:36:40.827Z,155
2019-02-03T11:37:39.628Z,150
2019-02-03T11:38:38.184Z,150
2019-02-03T11:39:36.763Z,150
2019-02-03T11:40:35.342Z,145
2019-02-03T11:41:33.910Z,135
2019-02-03T11:42:32.632Z,130
2019-02-03T11:43:31.278Z,130
2019-02-03T11:44:30.013Z,125
2019-02-03T11:45:28.571Z,120
2019-02-03T11:46:27.159Z,120
2019-02-03T11:47:25.950Z,115
2019-02-03T11:48:24.567Z,120
2019-02-03T11:49:23.369Z,130
2019-02-03T11:50:22.025Z,130
2019-02-03T11:51:20.608Z,130
2019-02-03T11:52:19.214Z,125
2019-02-03T11:53:17.886Z,120
2019-02-03T11:54:16.464Z,120
2019-02-03T11:55:15.042Z,120
2019-02-03T11:56:13.622Z,115
2019-02-03T11:57:12.271Z,115
2019-02-03T11:58:10.863Z,115
2019-02-03T11:59:09.488Z,115
2019-02-03T12:00:08.105Z,115
2019-02-03T12:01:06.676Z,110
2019-02-03T12:02:05.369Z,105
2019-02-03T12:03:04.143Z,100
2019-02-03T12:04:02.695Z,100
2019-02-03T12:05:01.217Z,100
2019-02-03T12:05:59.899Z,105
2019-02-03T12:06:58.560Z,110
2019-02-03T12:07:57.182Z,120
2019-02-03T12:08:55.949Z,125
2019-02-03T12:09:54.553Z,125
2019-02-03T12:10:53.195Z,115
2019-02-03T12:12:00.689Z,110
2019-02-03T12:12:50.384Z,110
2019-02-03T12:13:48.933Z,110
2019-02-03T12:14:47.521Z,100
2019-02-03T12:15:47.990Z,90
2019-02-03T12:16:44.735Z,85
2019-02-03T12:17:43.405Z,90
2019-02-03T12:18:42.124Z,95
2019-02-03T12:19:40.659Z,95
2019-02-03T12:20:39.205Z,100
2019-02-03T12:21:37.776Z,100
2019-02-03T12:22:36.431Z,90
2019-02-03T12:23:34.984Z,80
2019-02-03T12:24:33.564Z,75
2019-02-03T12:25:32.144Z,85
2019-02-03T12:26:30.688Z,95
2019-02-03T12:27:29.252Z,95
2019-02-03T12:28:27.883Z,85
2019-02-03T12:29:28.588Z,85
2019-02-03T12:30:25.292Z,80
2019-02-03T12:31:24.465Z,75
2019-02-03T12:32:22.579Z,65
2019-02-03T12:33:21.134Z,60
2019-02-03T12:36:01.477Z,55
2019-02-03T12:37:00.091Z,55
2019-02-03T13:00:09.922Z,85
2019-02-03T13:01:08.561Z,80
2019-02-03T13:02:07.153Z,75
2019-02-03T13:03:05.968Z,70
2019-02-03T13:04:04.534Z,70
2019-02-03T13:05:03.082Z,75
2019-02-03T13:06:01.939Z,80
2019-02-03T13:07:00.516Z,80
2019-02-03T13:07:59.172Z,75
2019-02-03T13:08:57.741Z,70
2019-02-03T13:09:56.416Z,60
2019-02-03T13:10:54.973Z,55
2019-02-03T13:11:53.894Z,50
2019-02-03T13:15:37.928Z,60
2019-02-03T13:16:36.563Z,60
2019-02-03T13:17:35.110Z,65
2019-02-03T13:18:33.826Z,65
2019-02-03T13:19:32.442Z,60
2019-02-03T13:20:31.000Z,55
2019-02-03T13:21:29.709Z,55
2019-02-03T13:22:28.515Z,65
2019-02-03T13:23:27.100Z,65
2019-02-03T13:24:25.678Z,60
2019-02-03T13:25:24.252Z,55
2019-02-03T13:26:22.812Z,45
2019-02-03T13:27:21.309Z,35
2019-02-03T13:28:20.013Z,40
2019-02-03T13:29:18.574Z,45
2019-02-03T13:30:17.127Z,45
2019-02-03T13:31:15.878Z,50
2019-02-03T13:32:14.444Z,50
2019-02-03T13:33:12.987Z,55
2019-02-03T13:34:11.793Z,50
2019-02-03T13:35:10.336Z,55
2019-02-03T13:36:08.881Z,50
2019-02-03T13:37:07.431Z,45
2019-02-03T13:38:05.969Z,40
2019-02-03T13:39:06.703Z,40
2019-02-03T13:40:03.210Z,40
2019-02-03T13:41:02.084Z,40
2019-02-03T13:42:00.750Z,40
2019-02-03T13:42:59.312Z,40
2019-02-03T13:43:57.931Z,45
2019-02-03T13:44:56.470Z,45
2019-02-03T13:45:55.039Z,50
2019-02-03T13:46:53.586Z,50
2019-02-03T13:47:52.118Z,55
2019-02-03T13:48:50.673Z,55
2019-02-03T13:52:29.240Z,35
2019-02-03T13:53:27.802Z,35
2019-02-03T13:54:26.366Z,40
2019-02-03T13:55:24.921Z,40
2019-02-03T13:56:23.552Z,45
2019-02-03T14:09:53.959Z,45
2019-02-03T14:10:52.548Z,45
2019-02-03T14:11:51.097Z,40
2019-02-03T14:12:50.404Z,40
2019-02-03T14:13:48.362Z,40
2019-02-03T14:14:46.924Z,40
2019-02-03T14:15:45.610Z,35
2019-02-03T14:16:44.188Z,30
2019-02-03T14:17:42.712Z,30
2019-02-03T14:18:41.268Z,35
2019-02-03T14:19:39.794Z,35
2019-02-03T14:20:38.443Z,35
2019-02-03T14:21:36.981Z,35
2019-02-03T14:22:35.601Z,40
2019-02-03T14:23:34.279Z,40
2019-02-03T14:24:33.243Z,45
2019-02-03T14:25:31.547Z,40
2019-02-03T14:26:30.261Z,40
2019-02-03T14:27:30.857Z,40
2019-02-03T14:28:27.565Z,40
2019-02-03T14:29:26.110Z,40
2019-02-03T14:30:24.716Z,35
2019-02-03T14:31:23.223Z,35
2019-02-03T14:32:21.817Z,35
2019-02-03T14:33:20.416Z,35
2019-02-03T14:34:19.109Z,35
2019-02-03T14:35:17.701Z,35
2019-02-03T14:36:16.370Z,35
2019-02-03T14:37:14.927Z,35
2019-02-03T14:38:13.507Z,35
2019-02-03T14:39:12.103Z,35
2019-02-03T14:40:10.672Z,35
2019-02-03T14:41:09.359Z,35
2019-02-03T14:42:09.991Z,35
2019-02-03T14:43:06.700Z,40
2019-02-03T14:44:05.259Z,40
2019-02-03T14:45:04.841Z,45
2019-02-03T14:46:02.674Z,45
2019-02-03T14:47:01.217Z,40
2019-02-03T14:47:59.760Z,40
2019-02-03T14:48:58.312Z,35
2019-02-03T14:49:56.807Z,35
2019-02-03T14:50:55.342Z,40
2019-02-03T14:51:53.876Z,40
2019-02-03T14:52:52.479Z,40
2019-02-03T14:53:51.068Z,40